sensor_id;sensor_type;location;lat;lon;timestamp;P1;durP1;ratioP1;P2;durP2;ratioP2
47856;SDS011;33618;49.972;8.242;2023-06-22T00:00:03;7.28;;;4.65;;
47856;SDS011;33618;49.972;8.242;2023-06-22T00:02:36;5.38;;;4.65;;
47856;SDS011;33618;49.972;8.242;2023-06-22T00:05:03;4.55;;;4.22;;
47856;SDS011;33618;49.972;8.242;2023-06-22T00:07:30;4.78;;;4.38;;
47856;SDS011;33618;49.972;8.242;2023-06-22T00:09:57;4.93;;;4.53;;
47856;SDS011;33618;49.972;8.242;2023-06-22T00:12:24;4.70;;;4.40;;
47856;SDS011;33618;49.972;8.242;2023-06-22T00:14:51;5.38;;;4.57;;
47856;SDS011;33618;49.972;8.242;2023-06-22T00:17:18;6.45;;;4.55;;
47856;SDS011;33618;49.972;8.242;2023-06-22T00:19:48;5.80;;;5.05;;
47856;SDS011;33618;49.972;8.242;2023-06-22T00:22:19;5.00;;;4.50;;
47856;SDS011;33618;49.972;8.242;2023-06-22T00:24:56;5.32;;;4.93;;
47856;SDS011;33618;49.972;8.242;2023-06-22T00:27:23;5.82;;;4.65;;
47856;SDS011;33618;49.972;8.242;2023-06-22T00:29:50;4.80;;;4.32;;
47856;SDS011;33618;49.972;8.242;2023-06-22T00:32:18;4.90;;;4.50;;
47856;SDS011;33618;49.972;8.242;2023-06-22T00:34:45;6.07;;;4.30;;
47856;SDS011;33618;49.972;8.242;2023-06-22T00:37:12;5.50;;;5.10;;
47856;SDS011;33618;49.972;8.242;2023-06-22T00:39:39;6.22;;;5.20;;
47856;SDS011;33618;49.972;8.242;2023-06-22T00:42:06;7.47;;;4.78;;
47856;SDS011;33618;49.972;8.242;2023-06-22T00:44:34;5.90;;;5.40;;
47856;SDS011;33618;49.972;8.242;2023-06-22T00:47:02;10.48;;;5.47;;
47856;SDS011;33618;49.972;8.242;2023-06-22T00:49:30;7.68;;;5.32;;
47856;SDS011;33618;49.972;8.242;2023-06-22T00:51:57;5.93;;;5.43;;
47856;SDS011;33618;49.972;8.242;2023-06-22T00:54:24;8.95;;;5.80;;
47856;SDS011;33618;49.972;8.242;2023-06-22T00:56:52;7.40;;;6.00;;
47856;SDS011;33618;49.972;8.242;2023-06-22T00:59:23;6.00;;;5.25;;
47856;SDS011;33618;49.972;8.242;2023-06-22T01:01:50;6.65;;;5.68;;
47856;SDS011;33618;49.972;8.242;2023-06-22T01:04:18;6.45;;;5.85;;
47856;SDS011;33618;49.972;8.242;2023-06-22T01:06:53;6.55;;;5.88;;
47856;SDS011;33618;49.972;8.242;2023-06-22T01:09:29;10.25;;;6.22;;
47856;SDS011;33618;49.972;8.242;2023-06-22T01:12:02;8.07;;;7.07;;
47856;SDS011;33618;49.972;8.242;2023-06-22T01:14:36;7.65;;;6.70;;
47856;SDS011;33618;49.972;8.242;2023-06-22T01:17:09;7.10;;;6.40;;
47856;SDS011;33618;49.972;8.242;2023-06-22T01:19:44;7.70;;;7.00;;
47856;SDS011;33618;49.972;8.242;2023-06-22T01:22:15;10.50;;;6.32;;
47856;SDS011;33618;49.972;8.242;2023-06-22T01:30:17;7.82;;;6.82;;
47856;SDS011;33618;49.972;8.242;2023-06-22T01:32:45;9.35;;;7.15;;
47856;SDS011;33618;49.972;8.242;2023-06-22T01:35:13;9.38;;;6.93;;
47856;SDS011;33618;49.972;8.242;2023-06-22T01:37:41;8.45;;;7.07;;
47856;SDS011;33618;49.972;8.242;2023-06-22T01:40:08;8.68;;;7.15;;
47856;SDS011;33618;49.972;8.242;2023-06-22T01:42:36;9.10;;;7.43;;
47856;SDS011;33618;49.972;8.242;2023-06-22T01:45:04;9.98;;;7.20;;
47856;SDS011;33618;49.972;8.242;2023-06-22T01:47:33;9.05;;;7.38;;
47856;SDS011;33618;49.972;8.242;2023-06-22T01:50:01;8.13;;;7.35;;
47856;SDS011;33618;49.972;8.242;2023-06-22T01:52:28;8.63;;;7.18;;
47856;SDS011;33618;49.972;8.242;2023-06-22T01:54:55;7.45;;;6.75;;
47856;SDS011;33618;49.972;8.242;2023-06-22T01:57:24;7.35;;;6.65;;
47856;SDS011;33618;49.972;8.242;2023-06-22T02:00:03;8.23;;;7.15;;
47856;SDS011;33618;49.972;8.242;2023-06-22T02:02:32;7.43;;;6.75;;
47856;SDS011;33618;49.972;8.242;2023-06-22T02:05:06;7.63;;;7.03;;
47856;SDS011;33618;49.972;8.242;2023-06-22T02:07:39;7.05;;;6.45;;
47856;SDS011;33618;49.972;8.242;2023-06-22T02:10:13;8.10;;;7.10;;
47856;SDS011;33618;49.972;8.242;2023-06-22T02:12:46;7.68;;;7.05;;
47856;SDS011;33618;49.972;8.242;2023-06-22T02:15:15;8.35;;;7.55;;
47856;SDS011;33618;49.972;8.242;2023-06-22T02:17:42;8.20;;;7.47;;
47856;SDS011;33618;49.972;8.242;2023-06-22T02:20:13;8.02;;;7.20;;
47856;SDS011;33618;49.972;8.242;2023-06-22T02:22:41;7.97;;;7.15;;
47856;SDS011;33618;49.972;8.242;2023-06-22T02:25:08;8.23;;;6.97;;
47856;SDS011;33618;49.972;8.242;2023-06-22T02:27:35;7.85;;;6.57;;
47856;SDS011;33618;49.972;8.242;2023-06-22T02:30:03;7.75;;;6.95;;
47856;SDS011;33618;49.972;8.242;2023-06-22T02:32:30;7.70;;;7.00;;
47856;SDS011;33618;49.972;8.242;2023-06-22T02:35:00;7.35;;;6.55;;
47856;SDS011;33618;49.972;8.242;2023-06-22T02:37:31;7.45;;;6.60;;
47856;SDS011;33618;49.972;8.242;2023-06-22T02:39:58;8.20;;;7.43;;
47856;SDS011;33618;49.972;8.242;2023-06-22T02:42:25;7.97;;;7.18;;
47856;SDS011;33618;49.972;8.242;2023-06-22T02:44:52;8.23;;;7.45;;
47856;SDS011;33618;49.972;8.242;2023-06-22T02:47:19;8.63;;;7.43;;
47856;SDS011;33618;49.972;8.242;2023-06-22T02:49:46;8.45;;;7.55;;
47856;SDS011;33618;49.972;8.242;2023-06-22T02:52:13;10.35;;;7.20;;
47856;SDS011;33618;49.972;8.242;2023-06-22T02:54:40;7.75;;;6.72;;
47856;SDS011;33618;49.972;8.242;2023-06-22T02:57:07;8.35;;;7.20;;
47856;SDS011;33618;49.972;8.242;2023-06-22T02:59:40;8.65;;;7.82;;
47856;SDS011;33618;49.972;8.242;2023-06-22T03:02:08;7.90;;;7.15;;
47856;SDS011;33618;49.972;8.242;2023-06-22T03:04:36;9.48;;;7.47;;
47856;SDS011;33618;49.972;8.242;2023-06-22T03:07:03;9.00;;;7.10;;
47856;SDS011;33618;49.972;8.242;2023-06-22T03:09:32;7.70;;;7.00;;
47856;SDS011;33618;49.972;8.242;2023-06-22T03:11:59;8.02;;;6.72;;
47856;SDS011;33618;49.972;8.242;2023-06-22T03:14:26;7.90;;;7.20;;
47856;SDS011;33618;49.972;8.242;2023-06-22T03:16:53;10.18;;;7.53;;
47856;SDS011;33618;49.972;8.242;2023-06-22T03:19:20;7.95;;;7.25;;
47856;SDS011;33618;49.972;8.242;2023-06-22T03:21:48;7.72;;;7.13;;
47856;SDS011;33618;49.972;8.242;2023-06-22T03:24:15;7.90;;;7.20;;
47856;SDS011;33618;49.972;8.242;2023-06-22T03:26:42;8.88;;;8.07;;
47856;SDS011;33618;49.972;8.242;2023-06-22T03:29:12;8.73;;;7.95;;
47856;SDS011;33618;49.972;8.242;2023-06-22T03:31:40;8.60;;;7.63;;
47856;SDS011;33618;49.972;8.242;2023-06-22T03:34:07;8.23;;;7.45;;
47856;SDS011;33618;49.972;8.242;2023-06-22T03:36:34;9.48;;;7.70;;
47856;SDS011;33618;49.972;8.242;2023-06-22T03:39:01;10.45;;;7.70;;
47856;SDS011;33618;49.972;8.242;2023-06-22T03:41:28;9.63;;;7.97;;
47856;SDS011;33618;49.972;8.242;2023-06-22T03:43:55;8.90;;;8.05;;
47856;SDS011;33618;49.972;8.242;2023-06-22T03:46:22;9.30;;;8.40;;
47856;SDS011;33618;49.972;8.242;2023-06-22T03:48:50;8.40;;;7.60;;
47856;SDS011;33618;49.972;8.242;2023-06-22T03:51:17;9.27;;;8.40;;
47856;SDS011;33618;49.972;8.242;2023-06-22T03:53:44;9.07;;;8.27;;
47856;SDS011;33618;49.972;8.242;2023-06-22T03:56:11;8.18;;;7.47;;
47856;SDS011;33618;49.972;8.242;2023-06-22T03:58:38;8.85;;;7.95;;
47856;SDS011;33618;49.972;8.242;2023-06-22T04:01:09;9.10;;;7.82;;
47856;SDS011;33618;49.972;8.242;2023-06-22T04:03:38;9.35;;;8.18;;
47856;SDS011;33618;49.972;8.242;2023-06-22T04:06:06;10.80;;;7.75;;
47856;SDS011;33618;49.972;8.242;2023-06-22T04:08:32;11.80;;;7.90;;
47856;SDS011;33618;49.972;8.242;2023-06-22T04:11:00;9.30;;;8.40;;
47856;SDS011;33618;49.972;8.242;2023-06-22T04:13:27;8.88;;;8.02;;
47856;SDS011;33618;49.972;8.242;2023-06-22T04:15:54;8.65;;;7.80;;
47856;SDS011;33618;49.972;8.242;2023-06-22T04:18:21;8.93;;;8.10;;
47856;SDS011;33618;49.972;8.242;2023-06-22T04:20:48;8.73;;;8.02;;
47856;SDS011;33618;49.972;8.242;2023-06-22T04:23:15;8.77;;;7.93;;
47856;SDS011;33618;49.972;8.242;2023-06-22T04:25:42;8.43;;;7.63;;
47856;SDS011;33618;49.972;8.242;2023-06-22T04:28:09;9.30;;;7.63;;
47856;SDS011;33618;49.972;8.242;2023-06-22T04:30:39;8.85;;;7.80;;
47856;SDS011;33618;49.972;8.242;2023-06-22T04:33:14;8.98;;;8.07;;
47856;SDS011;33618;49.972;8.242;2023-06-22T04:35:41;8.32;;;7.57;;
47856;SDS011;33618;49.972;8.242;2023-06-22T04:38:12;8.65;;;7.85;;
47856;SDS011;33618;49.972;8.242;2023-06-22T04:40:42;8.82;;;8.00;;
47856;SDS011;33618;49.972;8.242;2023-06-22T04:43:09;12.52;;;7.90;;
47856;SDS011;33618;49.972;8.242;2023-06-22T04:45:36;8.50;;;7.70;;
47856;SDS011;33618;49.972;8.242;2023-06-22T04:48:04;9.15;;;7.45;;
47856;SDS011;33618;49.972;8.242;2023-06-22T04:50:32;8.52;;;7.68;;
47856;SDS011;33618;49.972;8.242;2023-06-22T04:52:59;8.40;;;7.60;;
47856;SDS011;33618;49.972;8.242;2023-06-22T04:55:26;8.30;;;7.28;;
47856;SDS011;33618;49.972;8.242;2023-06-22T04:57:53;11.25;;;7.97;;
47856;SDS011;33618;49.972;8.242;2023-06-22T05:00:20;8.05;;;7.35;;
47856;SDS011;33618;49.972;8.242;2023-06-22T05:02:49;7.90;;;7.20;;
47856;SDS011;33618;49.972;8.242;2023-06-22T05:05:16;8.20;;;7.45;;
47856;SDS011;33618;49.972;8.242;2023-06-22T05:07:44;11.68;;;7.65;;
47856;SDS011;33618;49.972;8.242;2023-06-22T05:10:14;7.93;;;7.18;;
47856;SDS011;33618;49.972;8.242;2023-06-22T05:12:41;8.38;;;7.38;;
47856;SDS011;33618;49.972;8.242;2023-06-22T05:15:09;8.30;;;7.13;;
47856;SDS011;33618;49.972;8.242;2023-06-22T05:17:36;11.75;;;7.53;;
47856;SDS011;33618;49.972;8.242;2023-06-22T05:20:10;8.45;;;7.65;;
47856;SDS011;33618;49.972;8.242;2023-06-22T05:22:38;8.57;;;7.40;;
47856;SDS011;33618;49.972;8.242;2023-06-22T05:25:07;7.85;;;7.13;;
47856;SDS011;33618;49.972;8.242;2023-06-22T05:27:35;8.68;;;7.85;;
47856;SDS011;33618;49.972;8.242;2023-06-22T05:30:06;10.48;;;7.95;;
47856;SDS011;33618;49.972;8.242;2023-06-22T05:32:34;9.13;;;8.23;;
47856;SDS011;33618;49.972;8.242;2023-06-22T05:35:19;9.13;;;8.23;;
47856;SDS011;33618;49.972;8.242;2023-06-22T05:37:46;9.48;;;8.10;;
47856;SDS011;33618;49.972;8.242;2023-06-22T05:40:14;8.65;;;7.82;;
47856;SDS011;33618;49.972;8.242;2023-06-22T05:42:41;9.50;;;8.38;;
47856;SDS011;33618;49.972;8.242;2023-06-22T05:45:09;9.02;;;7.35;;
47856;SDS011;33618;49.972;8.242;2023-06-22T05:47:36;8.65;;;7.85;;
47856;SDS011;33618;49.972;8.242;2023-06-22T05:50:03;10.48;;;7.90;;
47856;SDS011;33618;49.972;8.242;2023-06-22T05:52:33;7.57;;;6.90;;
47856;SDS011;33618;49.972;8.242;2023-06-22T05:55:01;8.88;;;7.97;;
47856;SDS011;33618;49.972;8.242;2023-06-22T05:57:28;9.02;;;7.82;;
47856;SDS011;33618;49.972;8.242;2023-06-22T05:59:56;8.90;;;8.00;;
47856;SDS011;33618;49.972;8.242;2023-06-22T06:02:22;9.60;;;8.75;;
47856;SDS011;33618;49.972;8.242;2023-06-22T06:04:50;10.70;;;8.80;;
47856;SDS011;33618;49.972;8.242;2023-06-22T06:07:19;13.10;;;9.35;;
47856;SDS011;33618;49.972;8.242;2023-06-22T06:09:46;11.57;;;8.48;;
47856;SDS011;33618;49.972;8.242;2023-06-22T06:12:14;9.98;;;8.40;;
47856;SDS011;33618;49.972;8.242;2023-06-22T06:14:41;9.85;;;8.60;;
47856;SDS011;33618;49.972;8.242;2023-06-22T06:17:08;12.52;;;9.13;;
47856;SDS011;33618;49.972;8.242;2023-06-22T06:19:35;10.07;;;8.63;;
47856;SDS011;33618;49.972;8.242;2023-06-22T06:22:02;9.02;;;8.13;;
47856;SDS011;33618;49.972;8.242;2023-06-22T06:24:29;8.50;;;7.70;;
47856;SDS011;33618;49.972;8.242;2023-06-22T06:27:04;8.95;;;8.02;;
47856;SDS011;33618;49.972;8.242;2023-06-22T06:29:46;9.75;;;8.32;;
47856;SDS011;33618;49.972;8.242;2023-06-22T06:32:15;9.20;;;8.27;;
47856;SDS011;33618;49.972;8.242;2023-06-22T07:02:00;10.93;;;7.60;;
47856;SDS011;33618;49.972;8.242;2023-06-22T07:04:26;14.18;;;11.10;;
47856;SDS011;33618;49.972;8.242;2023-06-22T07:06:53;16.88;;;15.02;;
47856;SDS011;33618;49.972;8.242;2023-06-22T07:09:20;9.55;;;8.65;;
47856;SDS011;33618;49.972;8.242;2023-06-22T07:11:47;9.63;;;8.73;;
47856;SDS011;33618;49.972;8.242;2023-06-22T07:14:14;9.50;;;8.50;;
47856;SDS011;33618;49.972;8.242;2023-06-22T07:16:40;10.70;;;8.90;;
47856;SDS011;33618;49.972;8.242;2023-06-22T07:19:07;10.95;;;9.18;;
47856;SDS011;33618;49.972;8.242;2023-06-22T07:21:37;12.10;;;8.00;;
47856;SDS011;33618;49.972;8.242;2023-06-22T07:24:06;11.75;;;8.27;;
47856;SDS011;33618;49.972;8.242;2023-06-22T07:26:33;9.00;;;7.43;;
47856;SDS011;33618;49.972;8.242;2023-06-22T07:29:00;9.13;;;8.18;;
47856;SDS011;33618;49.972;8.242;2023-06-22T07:31:27;12.35;;;8.20;;
47856;SDS011;33618;49.972;8.242;2023-06-22T07:33:54;8.05;;;7.18;;
47856;SDS011;33618;49.972;8.242;2023-06-22T07:36:21;9.05;;;8.07;;
47856;SDS011;33618;49.972;8.242;2023-06-22T07:38:48;10.95;;;7.90;;
47856;SDS011;33618;49.972;8.242;2023-06-22T07:41:15;10.38;;;7.90;;
47856;SDS011;33618;49.972;8.242;2023-06-22T07:43:42;9.38;;;8.00;;
47856;SDS011;33618;49.972;8.242;2023-06-22T07:46:09;9.25;;;8.25;;
47856;SDS011;33618;49.972;8.242;2023-06-22T07:48:36;9.52;;;8.68;;
47856;SDS011;33618;49.972;8.242;2023-06-22T07:51:04;9.30;;;8.32;;
47856;SDS011;33618;49.972;8.242;2023-06-22T07:53:32;9.82;;;7.50;;
47856;SDS011;33618;49.972;8.242;2023-06-22T07:55:59;8.88;;;8.07;;
47856;SDS011;33618;49.972;8.242;2023-06-22T07:58:26;9.07;;;8.18;;
47856;SDS011;33618;49.972;8.242;2023-06-22T08:00:52;8.85;;;8.00;;
47856;SDS011;33618;49.972;8.242;2023-06-22T08:03:19;9.18;;;8.27;;
47856;SDS011;33618;49.972;8.242;2023-06-22T08:05:46;8.77;;;7.80;;
47856;SDS011;33618;49.972;8.242;2023-06-22T08:08:13;8.88;;;8.00;;
47856;SDS011;33618;49.972;8.242;2023-06-22T08:10:40;8.30;;;7.40;;
47856;SDS011;33618;49.972;8.242;2023-06-22T08:13:08;8.82;;;7.95;;
47856;SDS011;33618;49.972;8.242;2023-06-22T08:15:36;8.82;;;7.93;;
47856;SDS011;33618;49.972;8.242;2023-06-22T08:18:03;8.38;;;7.68;;
47856;SDS011;33618;49.972;8.242;2023-06-22T08:20:30;11.27;;;8.18;;
47856;SDS011;33618;49.972;8.242;2023-06-22T08:22:57;9.43;;;8.15;;
47856;SDS011;33618;49.972;8.242;2023-06-22T08:25:32;8.10;;;7.18;;
47856;SDS011;33618;49.972;8.242;2023-06-22T08:28:00;9.88;;;8.50;;
47856;SDS011;33618;49.972;8.242;2023-06-22T08:30:28;8.68;;;7.90;;
47856;SDS011;33618;49.972;8.242;2023-06-22T08:32:55;9.15;;;7.72;;
47856;SDS011;33618;49.972;8.242;2023-06-22T08:35:22;8.45;;;7.55;;
47856;SDS011;33618;49.972;8.242;2023-06-22T08:37:50;11.52;;;8.07;;
47856;SDS011;33618;49.972;8.242;2023-06-22T08:40:20;8.00;;;7.20;;
47856;SDS011;33618;49.972;8.242;2023-06-22T08:42:47;8.48;;;7.78;;
47856;SDS011;33618;49.972;8.242;2023-06-22T08:45:15;8.82;;;7.95;;
47856;SDS011;33618;49.972;8.242;2023-06-22T08:47:42;8.13;;;7.40;;
47856;SDS011;33618;49.972;8.242;2023-06-22T08:50:09;10.20;;;8.07;;
47856;SDS011;33618;49.972;8.242;2023-06-22T08:52:37;8.68;;;7.88;;
47856;SDS011;33618;49.972;8.242;2023-06-22T08:55:08;9.02;;;7.35;;
47856;SDS011;33618;49.972;8.242;2023-06-22T08:57:35;11.93;;;7.97;;
47856;SDS011;33618;49.972;8.242;2023-06-22T09:00:06;9.00;;;7.80;;
47856;SDS011;33618;49.972;8.242;2023-06-22T09:02:43;11.63;;;7.97;;
47856;SDS011;33618;49.972;8.242;2023-06-22T09:05:11;7.82;;;7.07;;
47856;SDS011;33618;49.972;8.242;2023-06-22T09:07:38;8.35;;;7.28;;
47856;SDS011;33618;49.972;8.242;2023-06-22T09:10:05;7.97;;;7.28;;
47856;SDS011;33618;49.972;8.242;2023-06-22T09:12:33;8.95;;;7.63;;
47856;SDS011;33618;49.972;8.242;2023-06-22T09:15:00;8.02;;;7.32;;
47856;SDS011;33618;49.972;8.242;2023-06-22T09:17:27;8.80;;;7.93;;
47856;SDS011;33618;49.972;8.242;2023-06-22T09:19:54;10.23;;;7.85;;
47856;SDS011;33618;49.972;8.242;2023-06-22T09:26:27;8.15;;;7.35;;
47856;SDS011;33618;49.972;8.242;2023-06-22T09:28:55;8.82;;;7.13;;
47856;SDS011;33618;49.972;8.242;2023-06-22T09:31:21;8.85;;;7.25;;
47856;SDS011;33618;49.972;8.242;2023-06-22T09:33:52;8.02;;;7.35;;
47856;SDS011;33618;49.972;8.242;2023-06-22T09:36:20;8.02;;;7.10;;
47856;SDS011;33618;49.972;8.242;2023-06-22T09:38:48;8.00;;;7.30;;
47856;SDS011;33618;49.972;8.242;2023-06-22T09:41:40;8.07;;;7.38;;
47856;SDS011;33618;49.972;8.242;2023-06-22T09:44:51;9.52;;;7.00;;
47856;SDS011;33618;49.972;8.242;2023-06-22T09:48:02;7.78;;;7.07;;
47856;SDS011;33618;49.972;8.242;2023-06-22T09:51:13;7.45;;;6.78;;
47856;SDS011;33618;49.972;8.242;2023-06-22T09:54:24;7.88;;;7.07;;
47856;SDS011;33618;49.972;8.242;2023-06-22T09:57:35;7.90;;;7.07;;
47856;SDS011;33618;49.972;8.242;2023-06-22T10:00:46;8.57;;;7.07;;
47856;SDS011;33618;49.972;8.242;2023-06-22T10:03:57;8.48;;;7.13;;
47856;SDS011;33618;49.972;8.242;2023-06-22T10:07:09;7.90;;;7.25;;
47856;SDS011;33618;49.972;8.242;2023-06-22T10:10:20;7.30;;;6.70;;
47856;SDS011;33618;49.972;8.242;2023-06-22T10:13:31;7.10;;;6.32;;
47856;SDS011;33618;49.972;8.242;2023-06-22T10:16:42;7.00;;;6.40;;
47856;SDS011;33618;49.972;8.242;2023-06-22T10:19:53;7.00;;;6.07;;
47856;SDS011;33618;49.972;8.242;2023-06-22T10:23:04;6.40;;;5.80;;
47856;SDS011;33618;49.972;8.242;2023-06-22T10:26:15;6.75;;;6.13;;
47856;SDS011;33618;49.972;8.242;2023-06-22T17:34:20;13.18;;;4.78;;
47856;SDS011;33618;49.972;8.242;2023-06-22T17:36:51;10.48;;;4.65;;
47856;SDS011;33618;49.972;8.242;2023-06-22T17:39:20;16.92;;;6.32;;
47856;SDS011;33618;49.972;8.242;2023-06-22T17:41:49;14.10;;;5.47;;
47856;SDS011;33618;49.972;8.242;2023-06-22T17:44:17;12.82;;;5.03;;
47856;SDS011;33618;49.972;8.242;2023-06-22T17:46:54;10.43;;;5.13;;
47856;SDS011;33618;49.972;8.242;2023-06-22T17:49:29;11.48;;;4.28;;
47856;SDS011;33618;49.972;8.242;2023-06-22T17:51:58;5.70;;;2.95;;
47856;SDS011;33618;49.972;8.242;2023-06-22T17:54:30;5.60;;;3.00;;
47856;SDS011;33618;49.972;8.242;2023-06-22T17:57:16;6.15;;;2.40;;
47856;SDS011;33618;49.972;8.242;2023-06-22T17:59:50;4.30;;;2.20;;
47856;SDS011;33618;49.972;8.242;2023-06-22T18:02:19;6.32;;;3.38;;
47856;SDS011;33618;49.972;8.242;2023-06-22T18:05:01;3.70;;;2.13;;
47856;SDS011;33618;49.972;8.242;2023-06-22T18:07:30;7.50;;;2.40;;
47856;SDS011;33618;49.972;8.242;2023-06-22T18:10:00;4.40;;;2.53;;
47856;SDS011;33618;49.972;8.242;2023-06-22T18:12:28;6.28;;;2.80;;
47856;SDS011;33618;49.972;8.242;2023-06-22T18:14:55;7.80;;;2.70;;
47856;SDS011;33618;49.972;8.242;2023-06-22T18:17:23;6.53;;;2.67;;
47856;SDS011;33618;49.972;8.242;2023-06-22T18:19:52;5.30;;;2.60;;
47856;SDS011;33618;49.972;8.242;2023-06-22T18:22:21;6.20;;;2.47;;
47856;SDS011;33618;49.972;8.242;2023-06-22T18:24:48;4.32;;;2.70;;
47856;SDS011;33618;49.972;8.242;2023-06-22T18:27:16;4.68;;;2.58;;
47856;SDS011;33618;49.972;8.242;2023-06-22T18:29:43;7.57;;;2.22;;
47856;SDS011;33618;49.972;8.242;2023-06-22T18:32:11;4.20;;;2.55;;
47856;SDS011;33618;49.972;8.242;2023-06-22T18:34:41;3.90;;;2.53;;
47856;SDS011;33618;49.972;8.242;2023-06-22T18:37:10;7.20;;;2.88;;
47856;SDS011;33618;49.972;8.242;2023-06-22T18:39:42;6.78;;;2.78;;
47856;SDS011;33618;49.972;8.242;2023-06-22T18:42:12;9.07;;;2.80;;
47856;SDS011;33618;49.972;8.242;2023-06-22T18:44:41;5.13;;;2.58;;
47856;SDS011;33618;49.972;8.242;2023-06-22T18:47:09;5.30;;;2.60;;
47856;SDS011;33618;49.972;8.242;2023-06-22T18:54:47;4.95;;;2.47;;
47856;SDS011;33618;49.972;8.242;2023-06-22T18:57:15;5.53;;;2.20;;
47856;SDS011;33618;49.972;8.242;2023-06-22T19:02:12;3.38;;;1.95;;
47856;SDS011;33618;49.972;8.242;2023-06-22T19:18:35;3.25;;;1.50;;
47856;SDS011;33618;49.972;8.242;2023-06-22T19:21:38;1.35;;;1.20;;
47856;SDS011;33618;49.972;8.242;2023-06-22T19:23:57;1.63;;;1.05;;
47856;SDS011;33618;49.972;8.242;2023-06-22T19:26:24;1.10;;;1.05;;
47856;SDS011;33618;49.972;8.242;2023-06-22T19:28:55;5.47;;;1.45;;
47856;SDS011;33618;49.972;8.242;2023-06-22T19:31:23;1.10;;;0.90;;
47856;SDS011;33618;49.972;8.242;2023-06-22T20:15:28;1.13;;;0.80;;
47856;SDS011;33618;49.972;8.242;2023-06-22T20:17:56;2.08;;;0.70;;
47856;SDS011;33618;49.972;8.242;2023-06-22T20:20:29;1.92;;;0.80;;
47856;SDS011;33618;49.972;8.242;2023-06-22T20:23:00;0.65;;;0.65;;
47856;SDS011;33618;49.972;8.242;2023-06-22T20:25:32;0.68;;;0.60;;
47856;SDS011;33618;49.972;8.242;2023-06-22T20:28:05;0.63;;;0.63;;
47856;SDS011;33618;49.972;8.242;2023-06-22T20:30:38;1.40;;;0.60;;
47856;SDS011;33618;49.972;8.242;2023-06-22T20:33:14;0.73;;;0.73;;
47856;SDS011;33618;49.972;8.242;2023-06-22T20:35:42;2.60;;;0.75;;
47856;SDS011;33618;49.972;8.242;2023-06-22T20:38:10;2.08;;;0.55;;
47856;SDS011;33618;49.972;8.242;2023-06-22T20:40:40;3.67;;;0.98;;
47856;SDS011;33618;49.972;8.242;2023-06-22T20:43:07;1.33;;;0.60;;
47856;SDS011;33618;49.972;8.242;2023-06-22T20:45:34;0.88;;;0.50;;
47856;SDS011;33618;49.972;8.242;2023-06-22T20:48:03;0.57;;;0.57;;
47856;SDS011;33618;49.972;8.242;2023-06-22T20:50:31;0.63;;;0.60;;
47856;SDS011;33618;49.972;8.242;2023-06-22T21:30:38;0.88;;;0.40;;
47856;SDS011;33618;49.972;8.242;2023-06-22T21:33:05;3.17;;;0.40;;
47856;SDS011;33618;49.972;8.242;2023-06-22T21:35:32;0.30;;;0.30;;
47856;SDS011;33618;49.972;8.242;2023-06-22T21:38:01;1.80;;;0.28;;
47856;SDS011;33618;49.972;8.242;2023-06-22T22:08:56;2.00;;;0.40;;
47856;SDS011;33618;49.972;8.242;2023-06-22T22:11:23;0.40;;;0.40;;
47856;SDS011;33618;49.972;8.242;2023-06-22T22:13:50;0.52;;;0.40;;
47856;SDS011;33618;49.972;8.242;2023-06-22T22:16:18;0.30;;;0.30;;
47856;SDS011;33618;49.972;8.242;2023-06-22T22:18:46;1.23;;;0.40;;
47856;SDS011;33618;49.972;8.242;2023-06-22T22:21:13;0.45;;;0.45;;
47856;SDS011;33618;49.972;8.242;2023-06-22T22:23:40;0.75;;;0.50;;
47856;SDS011;33618;49.972;8.242;2023-06-22T22:26:07;1.10;;;0.60;;
47856;SDS011;33618;49.972;8.242;2023-06-22T22:28:34;0.90;;;0.90;;
47856;SDS011;33618;49.972;8.242;2023-06-22T22:31:01;1.13;;;1.10;;
47856;SDS011;33618;49.972;8.242;2023-06-22T22:33:41;2.05;;;1.27;;
47856;SDS011;33618;49.972;8.242;2023-06-22T22:36:09;1.17;;;1.17;;
47856;SDS011;33618;49.972;8.242;2023-06-22T22:38:36;1.83;;;1.73;;
47856;SDS011;33618;49.972;8.242;2023-06-22T22:41:08;2.60;;;2.40;;
47856;SDS011;33618;49.972;8.242;2023-06-22T22:43:36;2.47;;;2.35;;
47856;SDS011;33618;49.972;8.242;2023-06-22T22:46:05;3.95;;;3.00;;
47856;SDS011;33618;49.972;8.242;2023-06-22T22:48:32;3.30;;;2.70;;
47856;SDS011;33618;49.972;8.242;2023-06-22T22:50:59;2.80;;;2.60;;
47856;SDS011;33618;49.972;8.242;2023-06-22T22:53:26;3.90;;;3.35;;
47856;SDS011;33618;49.972;8.242;2023-06-22T22:55:53;3.90;;;3.58;;
47856;SDS011;33618;49.972;8.242;2023-06-22T22:58:20;3.85;;;3.55;;
47856;SDS011;33618;49.972;8.242;2023-06-22T23:00:47;4.28;;;3.97;;
47856;SDS011;33618;49.972;8.242;2023-06-22T23:03:14;4.68;;;4.28;;
47856;SDS011;33618;49.972;8.242;2023-06-22T23:05:42;4.65;;;4.18;;
47856;SDS011;33618;49.972;8.242;2023-06-22T23:08:08;4.95;;;4.45;;
47856;SDS011;33618;49.972;8.242;2023-06-22T23:10:35;5.03;;;4.63;;
47856;SDS011;33618;49.972;8.242;2023-06-22T23:13:02;4.78;;;4.38;;
47856;SDS011;33618;49.972;8.242;2023-06-22T23:15:29;5.03;;;4.63;;
47856;SDS011;33618;49.972;8.242;2023-06-22T23:17:56;4.85;;;4.45;;
47856;SDS011;33618;49.972;8.242;2023-06-22T23:20:23;5.00;;;4.60;;
47856;SDS011;33618;49.972;8.242;2023-06-22T23:22:54;7.97;;;5.43;;
47856;SDS011;33618;49.972;8.242;2023-06-22T23:25:24;5.32;;;4.88;;
47856;SDS011;33618;49.972;8.242;2023-06-22T23:27:52;4.82;;;4.43;;
47856;SDS011;33618;49.972;8.242;2023-06-22T23:30:19;6.03;;;5.32;;
47856;SDS011;33618;49.972;8.242;2023-06-22T23:32:46;5.65;;;5.25;;
47856;SDS011;33618;49.972;8.242;2023-06-22T23:35:13;4.85;;;4.45;;
47856;SDS011;33618;49.972;8.242;2023-06-22T23:37:41;6.72;;;5.35;;
47856;SDS011;33618;49.972;8.242;2023-06-22T23:40:08;6.38;;;5.47;;
47856;SDS011;33618;49.972;8.242;2023-06-22T23:42:46;6.20;;;5.60;;
47856;SDS011;33618;49.972;8.242;2023-06-22T23:45:14;5.60;;;5.10;;
47856;SDS011;33618;49.972;8.242;2023-06-22T23:47:44;5.90;;;5.40;;
47856;SDS011;33618;49.972;8.242;2023-06-22T23:50:12;6.10;;;5.57;;
47856;SDS011;33618;49.972;8.242;2023-06-22T23:52:41;5.70;;;5.07;;
47856;SDS011;33618;49.972;8.242;2023-06-22T23:55:08;5.38;;;4.88;;
47856;SDS011;33618;49.972;8.242;2023-06-22T23:57:37;5.70;;;5.13;;
